Argonne, Wisconsin
Current Conditions -  °F | °C
As of 2:35 AM on Friday 31 Oct 2014 (Local Time) from KEGV Reporting Station
Light Snow Light Snow  
Wind Chill: 18°   Ceiling: 3500
Heat Index: 29°   Visibility: 7mi
Dew Point: 24°   Wind: 15mph
Humidity: 82%   Direction: 350°N
Pressure: 30.16"   Gusts: 28mph
Location:  45.66°N, 88.88°W
Report Text: KEGV 310735Z AUTO 35013G24KT 7SM -SN SCT018 SCT025 BKN035 M02/M04 A3016 RMK AO2 T10161043
Loading
Personal Weather Stations






























Interactive Weather Map
Tropical Storm Tracking
New forecast layout! Learn more

10-Day Weather Forecast

Advertisements
Track Severe Weather on mobile